Time;durP1;ratioP1;P1;durP2;ratioP2;P2;SDS_P1;SDS_P2;PMS_P1;PMS_P2;Temp;Humidity;BMP_temperature;BMP_pressure;BME280_temperature;BME280_humidity;BME280_pressure;Samples;Min_cycle;Max_cycle;Signal;HPM_P1;HPM_P2
2022/10/22 00:01:37;;;;;;;30.05;18.80;;;;;;;6.37;100.00;93912.28;5065322;28;20561;-76
2022/10/22 00:04:05;;;;;;;28.85;17.77;;;;;;;6.49;100.00;93910.13;5063974;28;20451;-76
2022/10/22 00:06:32;;;;;;;25.42;17.35;;;;;;;6.56;100.00;93912.81;5068337;28;20090;-76
2022/10/22 00:09:00;;;;;;;28.95;18.52;;;;;;;6.61;100.00;93915.66;5068529;28;20443;-76
2022/10/22 00:11:27;;;;;;;23.10;17.05;;;;;;;6.70;100.00;93913.09;5066522;28;20036;-76
2022/10/22 00:13:53;;;;;;;25.23;17.45;;;;;;;6.78;100.00;93920.69;5067135;28;20044;-76
2022/10/22 00:16:20;;;;;;;28.13;19.20;;;;;;;6.71;100.00;93918.00;5068297;28;20037;-76
2022/10/22 00:18:47;;;;;;;29.17;19.95;;;;;;;6.82;100.00;93919.38;5067564;28;20041;-76
2022/10/22 00:21:14;;;;;;;26.50;18.02;;;;;;;6.85;100.00;93916.47;5067425;28;20049;-76
2022/10/22 00:23:41;;;;;;;24.38;17.77;;;;;;;6.88;100.00;93916.16;5062739;28;20041;-76
2022/10/22 00:26:10;;;;;;;21.60;16.55;;;;;;;6.94;100.00;93912.13;5051158;28;20043;-76
2022/10/22 00:28:37;;;;;;;21.42;15.82;;;;;;;6.92;100.00;93907.19;5052057;28;20045;-76
2022/10/22 00:31:04;;;;;;;23.85;15.48;;;;;;;7.00;100.00;93905.56;5052290;28;20041;-76
2022/10/22 00:33:32;;;;;;;21.33;14.93;;;;;;;6.97;100.00;93878.59;5052129;28;20498;-75
2022/10/22 00:35:59;;;;;;;21.50;15.02;;;;;;;7.06;100.00;93887.00;5052407;28;20052;-76
2022/10/22 00:38:26;;;;;;;33.25;20.42;;;;;;;6.94;100.00;93884.03;5051875;28;20619;-76
2022/10/22 00:40:52;;;;;;;32.00;20.05;;;;;;;6.91;100.00;93905.59;5052528;28;20041;-76
2022/10/22 00:43:21;;;;;;;35.00;20.42;;;;;;;6.86;100.00;93896.88;5051946;28;20079;-76
2022/10/22 00:45:47;;;;;;;37.92;23.90;;;;;;;6.59;100.00;93904.03;5051696;28;20094;-76
2022/10/22 00:48:18;;;;;;;42.75;26.27;;;;;;;6.43;100.00;93907.47;5052031;28;20095;-77
2022/10/22 00:50:50;;;;;;;44.67;24.77;;;;;;;6.35;100.00;93915.94;5051596;28;20048;-76
2022/10/22 00:53:19;;;;;;;39.40;25.63;;;;;;;6.30;100.00;93919.00;5052083;28;20045;-77
2022/10/22 00:55:50;;;;;;;43.63;28.08;;;;;;;6.35;100.00;93908.28;5052677;28;20029;-76
2022/10/22 00:58:20;;;;;;;37.15;25.65;;;;;;;6.39;100.00;93904.44;5052002;28;20045;-76
2022/10/22 01:00:48;;;;;;;47.58;26.65;;;;;;;6.24;100.00;93894.13;5051562;28;20095;-75
2022/10/22 01:03:16;;;;;;;46.10;27.77;;;;;;;6.19;100.00;93889.53;5051875;28;20049;-76
2022/10/22 01:05:45;;;;;;;46.92;27.40;;;;;;;6.24;100.00;93899.22;5051861;28;20463;-76
2022/10/22 01:08:23;;;;;;;47.13;26.13;;;;;;;6.21;100.00;93892.69;5069270;28;20500;-76
2022/10/22 01:11:00;;;;;;;44.83;25.80;;;;;;;6.07;100.00;93860.25;5071816;28;20101;-77
2022/10/22 01:13:36;;;;;;;32.58;22.45;;;;;;;6.32;100.00;93880.53;5071578;28;20439;-77
2022/10/22 01:16:11;;;;;;;29.15;18.63;;;;;;;6.36;100.00;93871.59;5071866;28;20543;-77
2022/10/22 01:18:45;;;;;;;23.65;16.65;;;;;;;6.48;100.00;93882.25;5071464;28;20500;-77
2022/10/22 01:21:22;;;;;;;17.90;14.05;;;;;;;6.65;100.00;93867.63;5071712;28;20040;-77
2022/10/22 01:24:20;;;;;;;16.33;13.10;;;;;;;6.78;100.00;93859.41;5071410;28;20090;-77
2022/10/22 01:27:03;;;;;;;18.35;13.10;;;;;;;6.89;100.00;93848.00;5071466;28;20089;-76
2022/10/22 01:29:36;;;;;;;16.02;13.13;;;;;;;7.00;100.00;93859.56;5071485;28;20518;-77
2022/10/22 01:32:10;;;;;;;16.85;12.63;;;;;;;7.08;100.00;93849.28;5071351;28;20106;-77
2022/10/22 01:34:40;;;;;;;21.23;13.55;;;;;;;7.12;100.00;93850.53;5071546;28;20049;-77
2022/10/22 01:37:09;;;;;;;17.67;13.18;;;;;;;7.14;100.00;93858.84;5070902;28;20470;-75
2022/10/22 01:39:38;;;;;;;21.48;15.02;;;;;;;7.13;100.00;93844.44;5071069;28;20044;-76
2022/10/22 01:42:05;;;;;;;23.50;15.77;;;;;;;7.19;100.00;93838.66;5071021;28;20090;-76
2022/10/22 01:44:35;;;;;;;22.40;15.50;;;;;;;7.21;100.00;93835.94;5070870;28;20044;-76
2022/10/22 01:47:11;;;;;;;21.30;14.82;;;;;;;7.21;100.00;93834.19;5071200;28;20130;-76
2022/10/22 01:49:54;;;;;;;20.42;14.15;;;;;;;7.35;100.00;93827.50;5070866;28;20060;-76
2022/10/22 01:52:33;;;;;;;17.67;13.93;;;;;;;7.29;100.00;93819.72;5071134;28;20040;-77
2022/10/22 01:55:11;;;;;;;19.67;13.90;;;;;;;7.45;100.00;93836.69;5071020;28;20044;-76
2022/10/22 01:57:47;;;;;;;19.75;14.57;;;;;;;7.47;100.00;93837.31;5070936;28;20203;-75
2022/10/22 02:00:17;;;;;;;;;;;;;;;7.53;100.00;93844.28;5071288;28;20098;-76
2022/10/22 02:02:49;;;;;;;18.10;12.50;;;;;;;7.53;100.00;93844.28;5070742;28;19928;-76
2022/10/22 02:05:21;;;;;;;17.00;13.15;;;;;;;7.59;100.00;93835.91;5071007;28;20040;-75
2022/10/22 02:07:52;;;;;;;19.15;12.93;;;;;;;7.61;100.00;93845.97;5070657;28;20086;-76
2022/10/22 02:10:20;;;;;;;18.45;12.82;;;;;;;7.68;100.00;93851.19;5070653;28;20044;-75
2022/10/22 02:12:50;;;;;;;18.15;13.27;;;;;;;7.68;100.00;93849.41;5070494;28;20386;-75
2022/10/22 02:15:21;;;;;;;16.60;13.00;;;;;;;7.69;100.00;93848.41;5070754;28;20446;-75
2022/10/22 02:17:48;;;;;;;17.38;13.43;;;;;;;7.68;100.00;93840.94;5070463;28;20044;-75
2022/10/22 02:20:19;;;;;;;16.10;13.02;;;;;;;7.70;100.00;93829.56;5070200;28;20499;-75
2022/10/22 02:22:47;;;;;;;15.32;11.98;;;;;;;7.72;100.00;93826.81;5070005;28;20045;-75
2022/10/22 02:25:14;;;;;;;21.02;15.43;;;;;;;7.73;100.00;93842.00;5070569;28;20383;-75
2022/10/22 02:27:48;;;;;;;28.65;17.95;;;;;;;7.41;100.00;93818.34;5070106;28;20455;-75
2022/10/22 02:30:20;;;;;;;30.58;19.80;;;;;;;7.31;100.00;93840.81;5069590;28;20054;-75
2022/10/22 02:32:52;;;;;;;36.08;23.08;;;;;;;6.28;100.00;93796.69;5068991;28;20067;-76
2022/10/22 02:35:22;;;;;;;35.67;23.20;;;;;;;6.37;100.00;93868.88;5070818;28;20048;-76
2022/10/22 02:37:51;;;;;;;37.75;25.05;;;;;;;5.84;100.00;93860.94;5051863;28;20095;-76
2022/10/22 02:40:18;;;;;;;40.63;25.40;;;;;;;5.23;100.00;93864.69;5048588;28;20045;-76
2022/10/22 02:42:47;;;;;;;34.72;24.80;;;;;;;5.04;100.00;93865.78;5049578;28;20106;-75
2022/10/22 02:45:15;;;;;;;36.92;26.42;;;;;;;4.92;100.00;93860.25;5049991;28;20094;-76
2022/10/22 02:47:43;;;;;;;43.03;26.85;;;;;;;4.78;100.00;93854.81;5048996;28;21026;-75
2022/10/22 02:50:10;;;;;;;41.67;26.42;;;;;;;4.76;100.00;93864.34;5049581;28;20099;-75
2022/10/22 02:52:37;;;;;;;41.53;27.65;;;;;;;4.69;100.00;93873.56;5049814;28;20090;-76
2022/10/22 02:55:04;;;;;;;39.47;27.58;;;;;;;4.77;100.00;93868.50;5049575;28;20603;-75
2022/10/22 02:57:31;;;;;;;38.95;26.38;;;;;;;4.84;100.00;93867.84;5049944;28;20044;-75
2022/10/22 02:59:58;;;;;;;41.40;27.25;;;;;;;4.80;100.00;93868.19;5049666;28;20045;-75
2022/10/22 03:02:25;;;;;;;35.47;24.67;;;;;;;4.89;100.00;93876.63;5049428;28;20048;-75
2022/10/22 03:04:53;;;;;;;35.67;25.48;;;;;;;4.95;100.00;93870.91;5049402;28;20102;-75
2022/10/22 03:07:20;;;;;;;38.78;25.45;;;;;;;5.07;100.00;93871.38;5049317;28;20493;-75
2022/10/22 03:09:47;;;;;;;43.45;25.63;;;;;;;5.09;100.00;93871.22;5049312;28;20098;-75
2022/10/22 03:12:13;;;;;;;41.45;26.25;;;;;;;5.10;100.00;93869.47;5049291;28;20646;-75
2022/10/22 03:14:40;;;;;;;33.50;24.63;;;;;;;5.10;100.00;93870.28;5049454;28;20072;-75
2022/10/22 03:17:07;;;;;;;35.92;25.13;;;;;;;5.12;100.00;93870.09;5049249;28;20041;-75
2022/10/22 03:19:34;;;;;;;38.42;25.52;;;;;;;4.92;100.00;93863.56;5055763;28;20044;-76
2022/10/22 03:22:05;;;;;;;39.47;26.95;;;;;;;4.91;100.00;93858.66;5069311;28;20071;-76
2022/10/22 03:24:36;;;;;;;41.95;28.00;;;;;;;5.03;100.00;93875.19;5068978;28;20048;-75
2022/10/22 03:27:03;;;;;;;51.13;32.40;;;;;;;4.98;100.00;93874.88;5069262;28;20668;-75
2022/10/22 03:29:34;;;;;;;47.25;29.70;;;;;;;4.91;100.00;93869.63;5069149;28;20122;-75
2022/10/22 03:32:02;;;;;;;44.92;29.52;;;;;;;4.82;100.00;93863.72;5068937;28;20415;-75
2022/10/22 03:34:29;;;;;;;42.50;27.42;;;;;;;4.85;100.00;93860.06;5069662;28;20412;-75
2022/10/22 03:36:59;;;;;;;43.05;28.58;;;;;;;4.84;100.00;93861.03;5069736;28;20052;-75
2022/10/22 03:39:29;;;;;;;45.55;28.35;;;;;;;4.95;100.00;93849.72;5068862;28;20100;-75
2022/10/22 03:41:56;;;;;;;38.67;27.08;;;;;;;5.06;100.00;93843.53;5069124;28;20041;-74
2022/10/22 03:44:24;;;;;;;44.50;27.67;;;;;;;5.13;100.00;93839.38;5069023;28;20044;-75
2022/10/22 03:46:51;;;;;;;37.63;25.73;;;;;;;5.15;100.00;93822.22;5068972;28;20048;-75
2022/10/22 03:49:17;;;;;;;32.85;23.45;;;;;;;5.29;100.00;93835.25;5068817;28;20044;-74
2022/10/22 03:51:44;;;;;;;34.03;23.60;;;;;;;5.34;100.00;93828.69;5068581;28;20462;-75
2022/10/22 03:54:11;;;;;;;30.63;20.90;;;;;;;5.37;100.00;93829.34;5068638;28;20492;-74
2022/10/22 03:56:39;;;;;;;35.72;24.27;;;;;;;5.52;100.00;93840.47;5068744;28;20421;-74
2022/10/22 03:59:06;;;;;;;27.15;20.05;;;;;;;5.65;100.00;93842.47;5068114;28;20044;-74
2022/10/22 04:01:32;;;;;;;31.33;22.33;;;;;;;5.59;100.00;93832.94;5068802;28;20052;-74
2022/10/22 04:03:59;;;;;;;31.15;21.48;;;;;;;5.58;100.00;93821.16;5068372;28;20577;-74
2022/10/22 04:06:26;;;;;;;29.35;21.30;;;;;;;5.71;100.00;93820.66;5068526;28;20037;-74
2022/10/22 04:08:53;;;;;;;24.35;18.88;;;;;;;5.84;100.00;93817.59;5068384;28;20571;-74
2022/10/22 04:11:19;;;;;;;23.55;18.27;;;;;;;5.95;100.00;93818.97;5068678;28;20094;-74
2022/10/22 04:13:47;;;;;;;25.00;17.75;;;;;;;6.07;100.00;93830.41;5068117;28;20542;-74
2022/10/22 04:16:16;;;;;;;21.38;16.13;;;;;;;6.17;100.00;93829.44;5068351;28;20109;-74
2022/10/22 04:18:45;;;;;;;21.95;15.88;;;;;;;6.27;100.00;93822.38;5068256;28;20129;-74
2022/10/22 04:21:13;;;;;;;21.15;16.30;;;;;;;6.47;100.00;93804.09;5068389;28;20435;-75
2022/10/22 04:23:44;;;;;;;25.85;17.27;;;;;;;6.60;100.00;93814.53;5069205;28;20048;-75
2022/10/22 04:26:11;;;;;;;24.38;17.05;;;;;;;6.72;100.00;93807.28;5068805;28;20053;-75
2022/10/22 04:28:38;;;;;;;21.02;15.80;;;;;;;6.89;100.00;93805.38;5068652;28;20045;-75
2022/10/22 04:31:10;;;;;;;20.23;15.55;;;;;;;7.02;100.00;93802.25;5068952;28;20118;-74
2022/10/22 04:33:36;;;;;;;20.50;14.68;;;;;;;7.17;100.00;93806.59;5068441;28;20052;-75
2022/10/22 04:36:07;;;;;;;20.38;14.68;;;;;;;7.26;100.00;93789.44;5068550;28;20048;-75
2022/10/22 04:38:34;;;;;;;17.88;14.20;;;;;;;7.46;100.00;93799.94;5068751;28;20053;-75
2022/10/22 04:41:09;;;;;;;17.65;14.70;;;;;;;7.60;100.00;93811.91;5068773;28;20048;-75
2022/10/22 04:43:35;;;;;;;18.10;13.85;;;;;;;7.70;100.00;93810.88;5068560;28;20546;-75
2022/10/22 04:46:02;;;;;;;16.58;13.02;;;;;;;7.71;100.00;93804.78;5067139;28;20048;-75
2022/10/22 04:48:30;;;;;;;16.80;13.38;;;;;;;7.91;100.00;93819.59;5048369;28;20118;-75
2022/10/22 04:50:57;;;;;;;18.23;13.70;;;;;;;7.96;100.00;93812.19;5053352;28;20102;-74
2022/10/22 04:53:24;;;;;;;18.67;14.13;;;;;;;7.99;100.00;93820.28;5059971;28;20056;-74
2022/10/22 04:55:50;;;;;;;16.05;12.80;;;;;;;8.07;100.00;93821.16;5062797;28;20448;-74
2022/10/22 04:58:17;;;;;;;20.77;14.32;;;;;;;8.11;100.00;93817.28;5065491;28;20048;-74
2022/10/22 05:00:44;;;;;;;20.63;15.15;;;;;;;8.14;100.00;93819.47;5068584;28;20044;-74
2022/10/22 05:03:10;;;;;;;20.83;13.55;;;;;;;8.22;100.00;93833.94;5068089;28;20051;-74
2022/10/22 05:05:38;;;;;;;19.55;14.85;;;;;;;8.26;100.00;93827.50;5051772;28;20045;-74
2022/10/22 05:08:05;;;;;;;18.65;14.32;;;;;;;8.26;100.00;93833.41;5068460;28;20106;-74
2022/10/22 05:10:32;;;;;;;19.80;13.52;;;;;;;8.32;100.00;93836.22;5068442;28;20057;-74
2022/10/22 05:12:59;;;;;;;24.50;13.68;;;;;;;8.31;100.00;93832.88;5058185;28;20439;-74
2022/10/22 05:15:25;;;;;;;20.05;13.25;;;;;;;8.29;100.00;93837.38;5071753;28;20497;-75
2022/10/22 05:17:54;;;;;;;31.25;19.85;;;;;;;8.24;100.00;93844.81;5071759;28;20040;-75
2022/10/22 05:20:21;;;;;;;30.13;20.67;;;;;;;8.11;100.00;93866.69;5072489;28;20080;-75
2022/10/22 05:22:49;;;;;;;29.92;20.73;;;;;;;7.86;100.00;93861.84;5071919;28;20114;-75
2022/10/22 05:25:16;;;;;;;32.85;22.08;;;;;;;7.35;100.00;93865.84;5071778;28;20099;-75
2022/10/22 05:27:43;;;;;;;33.60;23.90;;;;;;;6.89;100.00;93868.44;5071706;28;20051;-75
2022/10/22 05:30:11;;;;;;;38.90;25.90;;;;;;;6.44;100.00;93874.13;5066041;28;20550;-75
2022/10/22 05:32:37;;;;;;;34.90;26.08;;;;;;;6.05;100.00;93880.81;5060059;28;20101;-76
2022/10/22 05:35:04;;;;;;;33.55;25.23;;;;;;;5.77;100.00;93876.06;5071296;28;20106;-75
2022/10/22 05:37:31;;;;;;;37.17;26.17;;;;;;;5.79;100.00;93873.38;5057666;28;20040;-75
2022/10/22 05:39:59;;;;;;;35.08;26.23;;;;;;;5.66;100.00;93874.69;5071556;28;20098;-76
2022/10/22 05:42:33;;;;;;;35.05;24.52;;;;;;;5.45;100.00;93873.44;5069199;28;20094;-75
2022/10/22 05:45:00;;;;;;;37.42;25.70;;;;;;;5.39;100.00;93868.19;5071119;28;20048;-75
2022/10/22 05:47:29;;;;;;;39.45;27.10;;;;;;;5.23;100.00;93859.59;5071746;28;20048;-76
2022/10/22 05:49:56;;;;;;;39.58;26.13;;;;;;;5.32;100.00;93868.81;5071376;28;20052;-75
2022/10/22 05:52:23;;;;;;;38.17;26.25;;;;;;;5.45;100.00;93860.69;5071203;28;20049;-76
2022/10/22 05:54:49;;;;;;;38.45;25.48;;;;;;;5.58;100.00;93864.50;5071237;28;20048;-75
2022/10/22 05:57:18;;;;;;;40.10;25.95;;;;;;;5.65;100.00;93849.34;5070510;28;20467;-75
2022/10/22 05:59:44;;;;;;;36.90;25.42;;;;;;;5.86;100.00;93864.09;5070859;28;20052;-76
2022/10/22 06:02:13;;;;;;;37.13;26.15;;;;;;;5.80;100.00;93877.50;5070797;28;20053;-76
2022/10/22 06:04:40;;;;;;;37.28;25.95;;;;;;;5.82;100.00;93875.56;5070092;28;20053;-75
2022/10/22 06:07:14;;;;;;;36.97;25.77;;;;;;;5.92;100.00;93880.50;5070434;28;20097;-76
2022/10/22 06:09:41;;;;;;;35.10;24.77;;;;;;;5.93;100.00;93872.69;5070922;28;20054;-75
2022/10/22 06:12:09;;;;;;;36.33;24.98;;;;;;;5.74;100.00;93879.75;5070193;28;20060;-75
2022/10/22 06:14:37;;;;;;;37.45;26.00;;;;;;;5.94;100.00;93876.03;5070962;28;20059;-75
2022/10/22 06:17:04;;;;;;;36.28;23.90;;;;;;;6.09;100.00;93879.53;5071194;28;20135;-75
2022/10/22 06:19:33;;;;;;;37.25;26.98;;;;;;;6.32;100.00;93875.44;5070424;28;20103;-75
2022/10/22 06:21:59;;;;;;;42.30;24.00;;;;;;;6.47;100.00;93883.97;5070626;28;20462;-75
2022/10/22 06:24:26;;;;;;;39.33;24.33;;;;;;;6.58;100.00;93882.84;5070174;28;20488;-75
2022/10/22 06:26:53;;;;;;;37.47;24.17;;;;;;;6.57;100.00;93888.88;5070672;28;20041;-75
2022/10/22 06:29:20;;;;;;;37.03;24.98;;;;;;;6.62;100.00;93888.38;5070543;28;20447;-75
2022/10/22 06:31:48;;;;;;;32.00;23.52;;;;;;;6.50;100.00;93881.13;5070118;28;20044;-75
2022/10/22 06:34:17;;;;;;;35.90;22.83;;;;;;;6.52;100.00;93896.25;5070060;28;20049;-76
2022/10/22 06:36:44;;;;;;;32.83;22.13;;;;;;;6.58;100.00;93895.59;5070103;28;20044;-76
2022/10/22 06:39:12;;;;;;;35.50;23.52;;;;;;;6.64;100.00;93883.91;5070216;28;20057;-75
2022/10/22 06:41:38;;;;;;;32.13;22.75;;;;;;;6.72;100.00;93871.09;5069932;28;20443;-75
2022/10/22 06:44:05;;;;;;;37.72;23.65;;;;;;;6.85;100.00;93885.06;5070137;28;20048;-75
2022/10/22 06:46:32;;;;;;;38.70;23.27;;;;;;;6.99;100.00;93874.09;5070213;28;20040;-76
2022/10/22 06:49:04;;;;;;;32.28;21.23;;;;;;;7.16;100.00;93877.34;5070168;28;20109;-75
2022/10/22 06:51:32;;;;;;;34.28;22.13;;;;;;;7.17;100.00;93866.16;5069689;28;20048;-76
2022/10/22 06:53:59;;;;;;;32.80;22.05;;;;;;;7.39;100.00;93865.47;5069868;28;20044;-75
2022/10/22 06:56:27;;;;;;;33.60;22.15;;;;;;;7.74;100.00;93873.50;5067160;28;20114;-76
2022/10/22 06:58:59;;;;;;;36.03;22.92;;;;;;;8.00;100.00;93882.47;5067432;28;20583;-76
2022/10/22 07:01:28;;;;;;;38.90;23.48;;;;;;;8.22;100.00;93891.03;5067858;28;20052;-76
2022/10/22 07:03:55;;;;;;;39.28;22.48;;;;;;;8.33;100.00;93900.03;5063729;28;20048;-75
2022/10/22 07:06:25;;;;;;;38.50;22.88;;;;;;;8.52;100.00;93893.56;5069678;28;20516;-75
2022/10/22 07:08:53;;;;;;;38.00;21.38;;;;;;;8.73;100.00;93891.22;5069811;28;20118;-76
2022/10/22 07:11:21;;;;;;;36.13;21.05;;;;;;;8.88;100.00;93868.94;5068661;28;20374;-75
2022/10/22 07:13:49;;;;;;;36.40;20.83;;;;;;;9.15;100.00;93891.44;5069475;28;20044;-75
2022/10/22 07:16:20;;;;;;;33.95;20.52;;;;;;;9.34;100.00;93895.16;5062874;28;20044;-75
2022/10/22 07:18:48;;;;;;;40.00;21.45;;;;;;;9.67;100.00;93894.63;5057196;28;20080;-75
2022/10/22 07:21:17;;;;;;;33.28;20.55;;;;;;;9.92;100.00;93891.63;5068284;28;20040;-75
2022/10/22 07:23:45;;;;;;;31.77;19.52;;;;;;;10.23;100.00;93877.56;5069344;28;20046;-76
2022/10/22 07:26:14;;;;;;;21.63;12.90;;;;;;;10.64;100.00;93881.13;5069524;28;20174;-75
2022/10/22 07:28:41;;;;;;;16.48;11.48;;;;;;;10.84;100.00;93854.69;5069276;28;20040;-75
2022/10/22 07:31:18;;;;;;;14.35;10.23;;;;;;;11.51;100.00;93892.53;5069256;28;20094;-76
2022/10/22 07:33:45;;;;;;;12.52;8.98;;;;;;;11.77;100.00;93875.50;5068673;28;20041;-76
2022/10/22 07:36:16;;;;;;;12.63;8.68;;;;;;;12.18;100.00;93889.09;5069376;28;20198;-76
2022/10/22 07:38:45;;;;;;;11.48;8.27;;;;;;;12.53;100.00;93903.44;5069139;28;20044;-76
2022/10/22 07:41:12;;;;;;;11.68;8.82;;;;;;;12.75;100.00;93903.97;5069348;28;20127;-76
2022/10/22 07:43:39;;;;;;;12.10;8.27;;;;;;;12.99;100.00;93899.06;5068505;28;20106;-76
2022/10/22 07:46:08;;;;;;;15.27;9.32;;;;;;;13.19;100.00;93898.94;5068867;28;20052;-76
2022/10/22 07:48:38;;;;;;;15.13;8.27;;;;;;;13.36;100.00;93891.50;5068902;28;20040;-76
2022/10/22 07:51:05;;;;;;;20.75;8.48;;;;;;;13.57;99.44;93889.56;5068790;28;20084;-76
2022/10/22 07:53:33;;;;;;;13.48;7.93;;;;;;;13.78;98.98;93884.25;5068619;28;20466;-76
2022/10/22 07:56:01;;;;;;;15.80;8.40;;;;;;;13.84;96.83;93873.84;5069299;28;20090;-76
2022/10/22 07:58:27;;;;;;;12.52;7.43;;;;;;;14.03;95.86;93885.00;5068784;28;20086;-76
2022/10/22 08:00:55;;;;;;;18.20;7.45;;;;;;;14.24;94.52;93885.59;5068867;28;20060;-76
2022/10/22 08:03:22;;;;;;;10.18;6.47;;;;;;;14.40;92.52;93880.84;5069023;28;20057;-76
2022/10/22 08:05:49;;;;;;;11.13;6.78;;;;;;;14.41;91.10;93856.56;5054842;28;20492;-76
2022/10/22 08:08:16;;;;;;;11.82;7.28;;;;;;;14.64;89.46;93879.19;5069112;28;20075;-76
2022/10/22 08:10:44;;;;;;;11.75;7.38;;;;;;;14.63;88.57;93869.81;5068637;28;20090;-76
2022/10/22 08:13:12;;;;;;;10.40;6.93;;;;;;;14.80;87.16;93885.56;5069084;28;20051;-76
2022/10/22 08:15:39;;;;;;;12.55;6.97;;;;;;;14.80;86.48;93882.97;5068912;28;20451;-76
2022/10/22 08:18:06;;;;;;;11.88;7.40;;;;;;;14.95;86.47;93876.63;5068882;28;20053;-76
2022/10/22 08:20:33;;;;;;;10.65;6.65;;;;;;;14.98;85.32;93880.53;5068501;28;20488;-76
2022/10/22 08:23:00;;;;;;;8.77;6.28;;;;;;;15.05;85.17;93876.84;5068981;28;20044;-76
2022/10/22 08:25:27;;;;;;;8.98;6.53;;;;;;;15.13;84.33;93887.94;5068376;28;20056;-76
2022/10/22 08:27:54;;;;;;;9.80;6.43;;;;;;;15.16;83.93;93870.16;5068870;28;20041;-76
2022/10/22 08:30:22;;;;;;;10.75;6.80;;;;;;;15.27;84.49;93878.16;5068821;28;20063;-75
2022/10/22 08:32:49;;;;;;;12.27;6.95;;;;;;;15.41;84.08;93876.94;5068724;28;20055;-76
2022/10/22 08:35:15;;;;;;;10.45;6.60;;;;;;;15.51;83.19;93881.59;5068836;28;20049;-75
2022/10/22 08:37:42;;;;;;;16.75;7.10;;;;;;;15.54;83.38;93878.53;5068496;28;20045;-77
2022/10/22 08:40:18;;;;;;;12.90;7.47;;;;;;;15.58;82.58;93876.28;5068810;28;20044;-76
2022/10/22 08:43:05;;;;;;;;;;;;;;;15.67;83.06;93881.91;5068748;28;20045;-77
2022/10/22 08:45:40;;;;;;;10.07;6.40;;;;;;;15.75;82.80;93879.78;5068816;28;20045;-75
2022/10/22 08:48:24;;;;;;;8.90;6.80;;;;;;;15.81;82.57;93885.06;5072372;28;20128;-76
2022/10/22 08:50:56;;;;;;;11.27;6.45;;;;;;;15.89;81.38;93885.53;5071963;28;20060;-76
2022/10/22 08:53:29;;;;;;;13.40;6.53;;;;;;;15.87;80.73;93884.16;5072388;28;20048;-76
2022/10/22 08:55:57;;;;;;;11.52;6.15;;;;;;;16.00;81.46;93891.75;5072344;28;20541;-77
2022/10/22 08:58:34;;;;;;;12.13;6.40;;;;;;;16.12;79.74;93883.19;5072399;28;20395;-77
2022/10/22 09:01:08;;;;;;;10.02;5.63;;;;;;;16.24;80.17;93873.59;5072172;28;20439;-76
2022/10/22 09:03:44;;;;;;;9.95;5.60;;;;;;;16.36;78.88;93883.16;5072302;28;20094;-77
2022/10/22 09:06:15;;;;;;;13.65;6.40;;;;;;;16.60;77.85;93883.88;5072283;28;20044;-77
2022/10/22 09:08:44;;;;;;;9.20;5.50;;;;;;;16.67;76.92;93878.56;5072089;28;20048;-76
2022/10/22 09:11:22;;;;;;;8.48;5.97;;;;;;;16.80;75.44;93875.69;5067690;28;20554;-76
2022/10/22 09:13:50;;;;;;;13.48;6.05;;;;;;;16.91;74.97;93878.47;5070986;28;20136;-77
2022/10/22 09:16:22;;;;;;;13.43;6.15;;;;;;;16.87;75.60;93852.19;5072162;28;20094;-77
2022/10/22 09:19:03;;;;;;;11.93;6.00;;;;;;;17.09;74.77;93865.31;5071736;28;20040;-77
2022/10/22 09:21:38;;;;;;;11.68;5.95;;;;;;;17.15;73.83;93868.00;5069157;28;20054;-77
2022/10/22 09:24:12;;;;;;;10.52;5.85;;;;;;;17.13;73.45;93872.63;5070188;28;20120;-77
2022/10/22 09:26:40;;;;;;;7.97;5.63;;;;;;;17.25;72.89;93868.16;5071993;28;20049;-77
2022/10/22 09:29:13;;;;;;;9.65;5.25;;;;;;;17.32;71.91;93855.03;5071415;28;20504;-76
2022/10/22 09:31:42;;;;;;;9.07;5.15;;;;;;;17.30;70.86;93860.47;5071603;28;20048;-77
2022/10/22 09:34:08;;;;;;;8.70;4.93;;;;;;;17.29;70.41;93853.69;5071308;28;20444;-76
2022/10/22 09:36:35;;;;;;;6.90;5.22;;;;;;;17.32;70.85;93847.25;5071853;28;20463;-77
2022/10/22 09:39:03;;;;;;;9.05;4.72;;;;;;;17.40;70.23;93852.03;5069110;28;20508;-77
2022/10/22 09:41:30;;;;;;;12.80;4.85;;;;;;;17.46;69.12;93838.09;5069873;28;20048;-77
2022/10/22 09:43:58;;;;;;;6.57;4.93;;;;;;;17.58;68.62;93842.44;5067601;28;20076;-77
2022/10/22 09:46:28;;;;;;;12.90;4.80;;;;;;;17.64;69.06;93833.72;5064243;28;20048;-77
2022/10/22 09:49:03;;;;;;;7.88;4.60;;;;;;;17.86;67.79;93833.75;5063371;28;20098;-76
2022/10/22 09:51:48;;;;;;;8.77;4.95;;;;;;;17.88;68.04;93830.91;5057815;28;20139;-77
2022/10/22 09:54:19;;;;;;;11.05;4.65;;;;;;;17.88;66.83;93823.88;5071524;28;20463;-77
2022/10/22 09:56:55;;;;;;;7.88;4.95;;;;;;;18.05;66.73;93822.28;5071119;28;20049;-77
2022/10/22 09:59:29;;;;;;;9.88;4.60;;;;;;;18.25;65.04;93829.56;5071376;28;20098;-77
2022/10/22 10:02:02;;;;;;;8.65;5.05;;;;;;;18.42;64.71;93824.28;5069751;28;20052;-76
2022/10/22 10:04:35;;;;;;;8.65;4.40;;;;;;;18.46;63.72;93822.78;5064738;28;20044;-76
2022/10/22 10:07:02;;;;;;;7.65;4.90;;;;;;;18.43;63.06;93812.88;5064298;28;20463;-76
2022/10/22 10:09:32;;;;;;;8.40;4.70;;;;;;;18.37;63.06;93788.59;5060305;28;20060;-77
2022/10/22 10:12:09;;;;;;;9.35;4.60;;;;;;;18.36;62.38;93797.44;5067335;28;20049;-76
2022/10/22 10:14:46;;;;;;;15.23;8.63;;;;;;;18.33;62.54;93807.56;5063972;28;20049;-76
2022/10/22 10:17:23;;;;;;;17.83;11.20;;;;;;;18.33;63.10;93807.56;5068139;28;20044;-76
2022/10/22 10:20:00;;;;;;;27.58;17.70;;;;;;;18.36;62.07;93801.84;5068261;28;20041;-76
2022/10/22 10:22:40;;;;;;;15.15;10.27;;;;;;;18.32;62.39;93796.34;5066625;28;20048;-76
2022/10/22 10:25:32;;;;;;;44.90;25.17;;;;;;;18.46;61.57;93793.41;5070173;28;20460;-76
2022/10/22 10:28:09;;;;;;;22.15;12.52;;;;;;;18.45;61.64;93782.19;5068045;28;20139;-76
2022/10/22 10:30:46;;;;;;;10.38;6.38;;;;;;;18.35;61.25;93777.69;5064573;28;20105;-76
2022/10/22 10:33:23;;;;;;;14.35;7.07;;;;;;;18.45;62.46;93787.41;5067017;28;20049;-76
2022/10/22 10:36:01;;;;;;;17.20;9.75;;;;;;;18.64;61.68;93776.63;5069705;28;20069;-77
2022/10/22 10:38:39;;;;;;;24.48;14.73;;;;;;;18.71;61.36;93772.03;5070149;28;20523;-77
2022/10/22 10:41:18;;;;;;;10.00;6.72;;;;;;;18.68;60.69;93770.72;5062030;28;20131;-77
2022/10/22 10:44:22;;;;;;;9.40;7.50;;;;;;;18.41;61.89;93744.69;5060180;28;20048;-75
2022/10/22 10:47:00;;;;;;;11.73;8.05;;;;;;;18.58;62.31;93768.00;5059477;28;20590;-76
2022/10/22 10:49:30;;;;;;;11.73;9.32;;;;;;;18.63;62.02;93760.25;5069534;28;20048;-76
2022/10/22 10:52:07;;;;;;;12.68;6.45;;;;;;;18.75;60.92;93760.09;5069708;28;20053;-76
2022/10/22 10:54:43;;;;;;;16.00;9.80;;;;;;;18.86;61.21;93749.78;5070003;28;20041;-76
2022/10/22 10:57:26;;;;;;;12.73;7.28;;;;;;;18.96;61.23;93744.66;5063908;28;20674;-76
2022/10/22 11:00:02;;;;;;;18.55;11.50;;;;;;;19.09;60.74;93741.66;5070464;28;20044;-75
2022/10/22 11:02:57;;;;;;;10.50;5.10;;;;;;;19.17;59.91;93734.41;5068982;28;20048;-76
2022/10/22 11:05:37;;;;;;;16.55;6.38;;;;;;;19.17;59.19;93732.59;5055469;28;20040;-76
2022/10/22 11:08:11;;;;;;;8.35;5.07;;;;;;;19.26;58.36;93726.91;5054022;28;20118;-76
2022/10/22 11:10:42;;;;;;;7.10;5.28;;;;;;;19.29;58.85;93723.81;5061867;28;20048;-77
2022/10/22 11:13:15;;;;;;;7.38;5.10;;;;;;;19.44;57.80;93720.53;5068348;28;20063;-76
2022/10/22 11:15:48;;;;;;;11.07;7.07;;;;;;;19.51;57.48;93702.84;5069654;28;20055;-76
2022/10/22 11:18:20;;;;;;;11.13;5.65;;;;;;;19.65;57.94;93704.97;5057947;28;20059;-76
2022/10/22 11:20:57;;;;;;;9.02;4.88;;;;;;;19.73;57.75;93700.06;5058505;28;20128;-76
2022/10/22 11:23:32;;;;;;;12.90;5.50;;;;;;;19.79;56.94;93697.47;5067330;28;20057;-76
2022/10/22 11:26:00;;;;;;;10.32;6.43;;;;;;;19.83;55.19;93688.91;5066568;28;20045;-76
2022/10/22 11:28:33;;;;;;;9.90;4.95;;;;;;;19.86;54.11;93679.78;5061602;28;20151;-76
2022/10/22 11:31:03;;;;;;;7.30;4.50;;;;;;;19.92;53.50;93683.19;5058230;28;20110;-76
2022/10/22 11:33:42;;;;;;;8.32;4.93;;;;;;;19.84;54.51;93677.44;5069158;28;20057;-75
2022/10/22 11:36:10;;;;;;;11.45;5.30;;;;;;;19.89;54.53;93674.84;5069076;28;20041;-76